Lake Park, Minnesota
Current Conditions -  °F | °C
As of 2:55 AM on Friday 21 Nov 2014 (Local Time) from KDTL Reporting Station
Clear Clear  
Wind Chill: -3°   Ceiling: Unl
Heat Index: 12°   Visibility: 10mi
Dew Point:   Wind: 14mph
Humidity: 79%   Direction: 180°S
Pressure: 30.04"   Gusts: NA
Location:  46.89°N, 96.09°W
Report Text: KDTL 210855Z AUTO 18012KT 10SM CLR M11/M14 A3004 RMK AO2
Loading
Personal Weather Stations






























Interactive Weather Map New forecast layout! Learn more

10-Day Weather Forecast

Advertisements
Track Severe Weather on mobile